Time;durP1;ratioP1;P1;durP2;ratioP2;P2;SDS_P1;SDS_P2;PMS_P1;PMS_P2;Temp;Humidity;BMP_temperature;BMP_pressure;BME280_temperature;BME280_humidity;BME280_pressure;Samples;Min_cycle;Max_cycle;Signal;HPM_P1;HPM_P2
2023/04/11 00:01:14;;;;;;;13.40;9.80;;;;;;;10.81;50.81;100414.54;104929;1267;65744;-75
2023/04/11 00:11:01;;;;;;;13.20;10.00;;;;;;;10.68;51.11;100405.66;102725;1293;600309;-76
2023/04/11 00:13:30;;;;;;;15.10;10.40;;;;;;;10.63;51.29;100401.37;104878;1269;59451;-75
2023/04/11 00:16:07;;;;;;;14.70;10.10;;;;;;;10.58;51.52;100401.23;104958;1263;59355;-75
2023/04/11 00:18:38;;;;;;;10.10;7.80;;;;;;;10.52;51.58;100398.16;105076;1263;65107;-76
2023/04/11 00:21:07;;;;;;;13.50;10.50;;;;;;;10.48;51.61;100399.33;105262;1262;59821;-74
2023/04/11 00:23:36;;;;;;;12.20;9.70;;;;;;;10.43;51.89;100397.65;106556;1261;167017;-75
2023/04/11 00:26:05;;;;;;;12.90;10.20;;;;;;;10.39;51.82;100392.17;105180;1261;59835;-74
2023/04/11 00:28:41;;;;;;;16.30;9.90;;;;;;;10.37;52.01;100395.34;105229;1261;59323;-74
2023/04/11 00:31:11;;;;;;;14.50;10.40;;;;;;;10.38;51.83;100396.14;105260;1263;65120;-75
2023/04/11 00:33:39;;;;;;;14.80;10.50;;;;;;;10.39;51.88;100396.73;105580;1263;59853;-76
2023/04/11 00:36:09;;;;;;;16.50;11.40;;;;;;;10.37;51.89;100391.83;105049;1263;65251;-71
2023/04/11 00:38:39;;;;;;;13.80;10.90;;;;;;;10.33;51.74;100392.27;105163;1269;59578;-71
2023/04/11 00:41:09;;;;;;;13.80;10.00;;;;;;;10.32;51.63;100388.28;105315;1263;60110;-74
2023/04/11 00:43:48;;;;;;;12.50;10.40;;;;;;;10.33;51.50;100386.83;104967;1260;65782;-74
2023/04/11 00:46:17;;;;;;;12.90;9.70;;;;;;;10.34;51.35;100389.23;105234;1260;59621;-73
2023/04/11 00:48:46;;;;;;;16.80;10.70;;;;;;;10.34;51.11;100389.19;105105;1263;65588;-73
2023/04/11 00:51:24;;;;;;;16.00;10.60;;;;;;;10.32;51.21;100384.39;105102;1266;59781;-73
2023/04/11 00:53:53;;;;;;;14.10;10.40;;;;;;;10.27;51.29;100383.02;105362;1264;59714;-73
2023/04/11 00:56:22;;;;;;;17.20;10.50;;;;;;;10.21;51.27;100383.44;105091;1263;65946;-74
2023/04/11 00:58:52;;;;;;;15.30;9.80;;;;;;;10.18;51.18;100378.41;105214;1263;59829;-74
2023/04/11 01:01:22;;;;;;;13.20;9.90;;;;;;;10.17;50.93;100375.92;105254;1266;65214;-74
2023/04/11 01:03:52;;;;;;;13.10;9.90;;;;;;;10.16;50.76;100371.56;105186;1268;59759;-75
2023/04/11 01:06:22;;;;;;;11.90;9.30;;;;;;;10.17;50.57;100369.03;105266;1263;59735;-73
2023/04/11 01:08:54;;;;;;;12.70;9.90;;;;;;;10.19;50.24;100368.72;105320;1262;65988;-74
2023/04/11 01:11:23;;;;;;;11.70;10.00;;;;;;;10.19;50.15;100368.84;105944;1263;59844;-73
2023/04/11 01:13:51;;;;;;;12.30;10.00;;;;;;;10.19;50.42;100367.80;105140;1259;64529;-75
2023/04/11 01:16:20;;;;;;;12.30;10.00;;;;;;;10.17;50.48;100367.46;105301;1257;59634;-73
2023/04/11 01:18:49;;;;;;;14.40;9.90;;;;;;;10.12;50.68;100363.94;105612;1256;59761;-74
2023/04/11 01:21:18;;;;;;;13.40;10.10;;;;;;;10.08;50.82;100359.02;105260;1257;65760;-72
2023/04/11 01:23:47;;;;;;;14.60;10.90;;;;;;;10.02;50.87;100353.83;105523;1261;59760;-73
2023/04/11 01:26:16;;;;;;;15.20;10.20;;;;;;;9.97;50.94;100353.84;105381;1260;64478;-73
2023/04/11 01:28:45;;;;;;;14.70;10.40;;;;;;;9.93;51.08;100346.07;105476;1257;59676;-74
2023/04/11 01:31:13;;;;;;;15.10;10.00;;;;;;;9.89;51.14;100341.61;105652;1257;59688;-75
2023/04/11 01:33:44;;;;;;;14.70;10.40;;;;;;;9.90;50.89;100335.20;105587;1261;65887;-74
2023/04/11 01:36:13;;;;;;;14.70;10.00;;;;;;;9.93;50.77;100330.79;105375;1258;59987;-76
2023/04/11 01:38:45;;;;;;;17.20;10.40;;;;;;;9.93;50.81;100331.29;105499;1257;65682;-74
2023/04/11 01:41:14;;;;;;;13.20;9.20;;;;;;;9.92;50.71;100328.95;105291;1257;59771;-73
2023/04/11 01:43:46;;;;;;;12.80;10.00;;;;;;;9.93;50.60;100324.80;105397;1257;59935;-74
2023/04/11 01:46:15;;;;;;;12.90;9.30;;;;;;;9.94;50.64;100321.90;105649;1260;65632;-75
2023/04/11 01:48:44;;;;;;;11.40;9.00;;;;;;;9.94;50.69;100323.80;106623;1254;59657;-72
2023/04/11 01:51:14;;;;;;;12.10;9.20;;;;;;;9.93;50.75;100325.11;105825;1257;65605;-73
2023/04/11 01:53:46;;;;;;;14.00;8.90;;;;;;;9.93;50.63;100323.02;105460;1259;59720;-72
2023/04/11 01:56:15;;;;;;;12.60;8.80;;;;;;;9.93;50.66;100323.41;105582;1259;59553;-72
2023/04/11 01:58:46;;;;;;;11.90;8.70;;;;;;;9.92;50.77;100323.98;105618;1258;65751;-72
2023/04/11 02:01:18;;;;;;;11.30;8.70;;;;;;;9.91;50.72;100321.08;105811;1254;59954;-73
2023/04/11 02:03:46;;;;;;;12.30;8.80;;;;;;;9.89;50.74;100323.52;105684;1254;65450;-73
2023/04/11 02:06:15;;;;;;;12.10;9.10;;;;;;;9.91;50.70;100324.98;106109;1259;59577;-75
2023/04/11 02:08:52;;;;;;;12.90;8.60;;;;;;;9.91;50.67;100328.13;105607;1254;59660;-74
2023/04/11 02:11:22;;;;;;;15.70;9.60;;;;;;;9.90;50.66;100327.88;105663;1254;64975;-73
2023/04/11 02:13:52;;;;;;;12.40;9.50;;;;;;;9.88;50.75;100328.02;105773;1254;59978;-74
2023/04/11 02:16:24;;;;;;;11.50;9.40;;;;;;;9.86;50.86;100329.05;105840;1257;65590;-73
2023/04/11 02:18:53;;;;;;;14.10;9.40;;;;;;;9.86;50.90;100328.19;105664;1259;59576;-73
2023/04/11 02:21:22;;;;;;;11.70;8.90;;;;;;;9.82;51.06;100328.27;105780;1254;59746;-73
2023/04/11 02:23:53;;;;;;;10.70;9.10;;;;;;;9.78;51.07;100333.00;105798;1259;65844;-74
2023/04/11 02:26:22;;;;;;;12.70;9.60;;;;;;;9.75;51.03;100327.06;106037;1257;59938;-74
2023/04/11 02:28:50;;;;;;;11.40;8.90;;;;;;;9.76;51.03;100324.73;105567;1254;65589;-73
2023/04/11 02:31:18;;;;;;;13.10;9.00;;;;;;;9.78;51.19;100322.86;105593;1259;59566;-73
2023/04/11 02:33:47;;;;;;;11.60;9.00;;;;;;;9.77;51.22;100328.34;105749;1254;59653;-74
2023/04/11 02:36:17;;;;;;;12.70;9.00;;;;;;;9.75;51.25;100331.62;105717;1259;66050;-74
2023/04/11 02:38:47;;;;;;;12.70;9.50;;;;;;;9.74;51.33;100331.73;105456;1259;59931;-73
2023/04/11 02:41:15;;;;;;;11.80;9.90;;;;;;;9.72;51.51;100329.57;105490;1256;65537;-73
2023/04/11 02:43:50;;;;;;;12.80;9.80;;;;;;;9.67;51.62;100330.15;105717;1257;59225;-74
2023/04/11 02:46:21;;;;;;;12.10;9.30;;;;;;;9.64;51.63;100330.39;105685;1254;59657;-73
2023/04/11 02:48:49;;;;;;;11.50;9.40;;;;;;;9.62;51.70;100325.94;106081;1254;65948;-71
2023/04/11 02:51:19;;;;;;;11.80;9.60;;;;;;;9.60;51.67;100326.10;105791;1259;59947;-73
2023/04/11 02:53:47;;;;;;;12.80;10.20;;;;;;;9.58;51.81;100327.48;105611;1254;65445;-72
2023/04/11 02:56:20;;;;;;;12.60;9.60;;;;;;;9.58;51.91;100324.19;105894;1258;61181;-73
2023/04/11 02:58:54;;;;;;;13.70;9.00;;;;;;;9.55;51.92;100328.27;105810;1253;59638;-74
2023/04/11 03:01:24;;;;;;;13.40;8.80;;;;;;;9.53;51.88;100334.38;105570;1254;65799;-73
2023/04/11 03:03:58;;;;;;;11.20;9.20;;;;;;;9.53;51.85;100332.08;105270;1254;61390;-74
2023/04/11 03:06:38;;;;;;;13.50;8.90;;;;;;;9.50;51.91;100327.20;105384;1257;65595;-75
2023/04/11 03:09:06;;;;;;;10.60;8.80;;;;;;;9.46;51.92;100322.21;105665;1259;59558;-74
2023/04/11 03:11:40;;;;;;;10.10;9.00;;;;;;;9.40;52.12;100319.38;105846;1254;59750;-72
2023/04/11 03:14:09;;;;;;;12.20;9.50;;;;;;;9.36;52.29;100318.09;105528;1260;65801;-73
2023/04/11 03:16:38;;;;;;;12.70;9.80;;;;;;;9.30;52.52;100316.77;105673;1259;60104;-73
2023/04/11 03:19:07;;;;;;;12.80;9.90;;;;;;;9.25;52.68;100308.01;105564;1254;65586;-72
2023/04/11 03:21:35;;;;;;;14.60;10.50;;;;;;;9.19;52.89;100304.23;105634;1259;59638;-74
2023/04/11 03:24:05;;;;;;;13.30;9.60;;;;;;;9.14;53.11;100302.28;105367;1254;59749;-73
2023/04/11 03:26:34;;;;;;;11.20;9.30;;;;;;;9.11;53.29;100298.71;105639;1259;66050;-73
2023/04/11 03:29:07;;;;;;;14.30;10.40;;;;;;;9.09;53.40;100302.94;105545;1259;59928;-73
2023/04/11 03:31:45;;;;;;;12.90;9.60;;;;;;;9.06;53.49;100304.17;105674;1254;65638;-73
2023/04/11 03:34:14;;;;;;;10.50;9.10;;;;;;;9.02;53.55;100298.84;105829;1254;59625;-73
2023/04/11 03:36:43;;;;;;;11.70;9.10;;;;;;;9.02;53.52;100294.61;105662;1254;59733;-73
2023/04/11 03:39:12;;;;;;;11.70;9.30;;;;;;;9.06;53.26;100297.48;105870;1254;65898;-74
2023/04/11 03:41:40;;;;;;;10.70;8.90;;;;;;;9.09;53.26;100296.77;105546;1254;59603;-74
2023/04/11 03:44:10;;;;;;;13.70;8.80;;;;;;;9.11;53.21;100299.94;105658;1254;65465;-74
2023/04/11 03:46:38;;;;;;;11.30;8.90;;;;;;;9.14;53.08;100294.95;105612;1254;60266;-74
2023/04/11 03:49:06;;;;;;;13.60;9.20;;;;;;;9.17;52.93;100294.20;105717;1259;59666;-73
2023/04/11 03:51:35;;;;;;;14.50;9.10;;;;;;;9.20;52.89;100293.64;105796;1259;65764;-74
2023/04/11 03:54:06;;;;;;;11.60;9.30;;;;;;;9.22;52.91;100292.80;105490;1260;59996;-74
2023/04/11 03:56:38;;;;;;;14.70;9.40;;;;;;;9.24;52.82;100290.86;105745;1254;65617;-74
2023/04/11 03:59:07;;;;;;;10.80;8.80;;;;;;;9.26;52.83;100286.71;105522;1259;59615;-74
2023/04/11 04:01:46;;;;;;;12.00;9.00;;;;;;;9.27;52.78;100278.54;106171;1258;59643;-75
2023/04/11 04:04:15;;;;;;;11.80;8.60;;;;;;;9.30;52.86;100275.32;105693;1254;65349;-72
2023/04/11 04:06:55;;;;;;;10.40;8.30;;;;;;;9.33;52.91;100274.58;105517;1257;61419;-73
2023/04/11 04:09:28;;;;;;;12.40;8.80;;;;;;;9.35;52.86;100277.54;105604;1254;65557;-74
2023/04/11 04:11:56;;;;;;;10.70;8.80;;;;;;;9.36;53.02;100282.91;105660;1259;59641;-74
2023/04/11 04:14:32;;;;;;;13.80;8.90;;;;;;;9.39;53.03;100283.76;105737;1254;59645;-72
2023/04/11 04:17:01;;;;;;;13.10;8.20;;;;;;;9.44;52.91;100285.16;105627;1254;65918;-73
2023/04/11 04:19:29;;;;;;;10.40;8.90;;;;;;;9.46;52.80;100283.90;105719;1258;59798;-74
2023/04/11 04:21:58;;;;;;;10.80;8.10;;;;;;;9.50;52.77;100283.80;105416;1254;65768;-74
2023/04/11 04:24:30;;;;;;;12.50;9.00;;;;;;;9.54;52.80;100281.58;105604;1257;60344;-73
2023/04/11 04:27:12;;;;;;;11.10;8.40;;;;;;;9.57;52.95;100282.80;105590;1255;60486;-73
2023/04/11 04:29:46;;;;;;;11.00;8.30;;;;;;;9.59;52.98;100280.67;106320;1254;66445;-73
2023/04/11 04:32:23;;;;;;;10.90;8.00;;;;;;;9.64;52.91;100279.79;105366;1254;61616;-74
2023/04/11 04:35:01;;;;;;;14.60;8.30;;;;;;;9.69;52.87;100279.68;105508;1254;65447;-72
2023/04/11 04:37:38;;;;;;;10.20;8.50;;;;;;;9.75;52.80;100279.95;105551;1254;60464;-73
2023/04/11 04:40:38;;;;;;;10.20;8.40;;;;;;;9.83;52.73;100282.38;105608;1254;60591;-72
2023/04/11 04:43:16;;;;;;;10.40;8.70;;;;;;;9.88;52.65;100280.34;105480;1259;66497;-73
2023/04/11 04:46:10;;;;;;;9.40;7.80;;;;;;;9.95;52.59;100279.46;105640;1254;60520;-74
2023/04/11 04:48:43;;;;;;;9.10;8.00;;;;;;;10.00;52.46;100279.73;105612;1254;65280;-73
2023/04/11 04:51:12;;;;;;;12.50;7.60;;;;;;;10.06;52.31;100280.36;105753;1254;60445;-75
2023/04/11 04:53:47;;;;;;;9.90;7.60;;;;;;;10.12;52.24;100283.20;105982;1254;60450;-74
2023/04/11 04:56:16;;;;;;;10.70;7.90;;;;;;;10.19;52.11;100284.94;105693;1254;66667;-74
2023/04/11 04:58:46;;;;;;;10.00;7.50;;;;;;;10.26;51.97;100281.38;105472;1260;60501;-71
2023/04/11 05:01:25;;;;;;;9.10;7.70;;;;;;;10.35;51.87;100275.45;105613;1254;65454;-75
2023/04/11 05:03:57;;;;;;;9.50;7.20;;;;;;;10.42;51.72;100276.65;105514;1262;60531;-75
2023/04/11 05:06:39;;;;;;;12.00;7.90;;;;;;;10.49;51.50;100277.42;105850;1254;60543;-76
2023/04/11 05:09:13;;;;;;;9.70;6.80;;;;;;;10.56;51.41;100278.30;105397;1260;66722;-75
2023/04/11 05:11:42;;;;;;;10.20;7.30;;;;;;;10.63;51.23;100279.83;105692;1254;60546;-74
2023/04/11 05:14:10;;;;;;;12.30;7.40;;;;;;;10.69;51.13;100277.40;105710;1254;65600;-73
2023/04/11 05:16:43;;;;;;;11.70;7.60;;;;;;;10.75;50.91;100269.67;105746;1254;60348;-74
2023/04/11 05:19:13;;;;;;;10.10;7.20;;;;;;;10.81;50.83;100269.75;105412;1259;61931;-77
2023/04/11 05:21:45;;;;;;;13.60;8.20;;;;;;;10.83;50.75;100266.91;105725;1255;66324;-76
2023/04/11 05:24:16;;;;;;;11.40;7.40;;;;;;;10.85;50.86;100266.02;105793;1254;60425;-78
2023/04/11 05:26:45;;;;;;;12.70;8.00;;;;;;;10.89;50.93;100264.30;105579;1259;64556;-77
2023/04/11 05:29:19;;;;;;;10.40;8.50;;;;;;;10.95;50.79;100261.91;105809;1257;60374;-74
2023/04/11 05:31:50;;;;;;;15.90;8.40;;;;;;;11.00;50.84;100258.31;105685;1254;60546;-72
2023/04/11 05:34:19;;;;;;;12.00;8.40;;;;;;;11.04;50.71;100252.34;105991;1254;66737;-76
2023/04/11 05:36:48;;;;;;;11.30;8.60;;;;;;;11.07;50.45;100251.51;105795;1254;60449;-75
2023/04/11 05:39:17;;;;;;;12.50;8.30;;;;;;;11.13;50.46;100248.25;105992;1254;65595;-74
2023/04/11 05:41:46;;;;;;;12.50;7.70;;;;;;;11.18;50.57;100245.31;105898;1254;60456;-75
2023/04/11 05:44:18;;;;;;;10.70;6.90;;;;;;;11.23;50.60;100243.31;105894;1259;60647;-77
2023/04/11 05:46:47;;;;;;;8.60;6.70;;;;;;;11.31;50.62;100241.75;105625;1263;66778;-77
2023/04/11 05:49:15;;;;;;;9.40;6.60;;;;;;;11.39;50.44;100246.19;106039;1259;60466;-78
2023/04/11 05:51:44;;;;;;;13.00;7.00;;;;;;;11.47;50.54;100241.95;106029;1254;65265;-84
2023/04/11 05:54:29;;;;;;;12.10;6.70;;;;;;;11.57;50.42;100234.92;106177;1254;60352;-76
2023/04/11 05:56:58;;;;;;;9.70;6.80;;;;;;;11.69;50.53;100234.50;105895;1254;60662;-76
2023/04/11 05:59:27;;;;;;;13.90;7.60;;;;;;;11.78;50.47;100236.50;105546;1259;67062;-74
2023/04/11 06:01:57;;;;;;;10.50;6.70;;;;;;;11.88;50.46;100234.99;105939;1259;60444;-76
2023/04/11 06:04:25;;;;;;;9.60;7.00;;;;;;;11.98;50.56;100235.14;106065;1255;64563;-77
2023/04/11 06:06:54;;;;;;;13.90;7.00;;;;;;;12.09;50.69;100233.29;106088;1255;60459;-78
2023/04/11 06:09:23;;;;;;;11.00;6.80;;;;;;;12.19;50.57;100229.69;105831;1254;60457;-78
2023/04/11 06:11:51;;;;;;;7.80;6.40;;;;;;;12.27;50.22;100233.48;105969;1257;66765;-77
2023/04/11 06:14:19;;;;;;;11.00;7.00;;;;;;;12.34;50.11;100237.94;105725;1259;60892;-77
2023/04/11 06:16:47;;;;;;;9.60;7.30;;;;;;;12.42;50.20;100236.69;106047;1254;65575;-78
2023/04/11 06:19:15;;;;;;;10.20;6.20;;;;;;;12.50;50.17;100235.05;105884;1259;60431;-77
2023/04/11 06:21:48;;;;;;;10.60;6.80;;;;;;;12.58;50.16;100234.55;106009;1254;60446;-78
2023/04/11 06:24:18;;;;;;;8.70;6.10;;;;;;;12.66;50.02;100238.59;106039;1254;66782;-77
2023/04/11 06:26:48;;;;;;;9.00;6.70;;;;;;;12.76;49.83;100239.48;106032;1256;60469;-75
2023/04/11 06:29:16;;;;;;;11.10;7.20;;;;;;;12.85;49.53;100239.67;105712;1254;65350;-76
2023/04/11 06:31:45;;;;;;;9.80;6.70;;;;;;;12.93;49.56;100239.86;106028;1255;60345;-79
2023/04/11 06:34:13;;;;;;;10.20;6.80;;;;;;;13.01;49.36;100240.70;106089;1260;60763;-77
2023/04/11 06:36:42;;;;;;;8.50;5.80;;;;;;;13.07;49.15;100234.86;105977;1259;66549;-78
2023/04/11 06:39:11;;;;;;;8.50;5.60;;;;;;;13.15;48.95;100233.73;105927;1255;60549;-78
2023/04/11 06:41:40;;;;;;;11.30;6.00;;;;;;;13.24;48.99;100232.11;106032;1254;65305;-77
2023/04/11 06:44:08;;;;;;;9.00;5.60;;;;;;;13.34;48.75;100233.27;106021;1254;60540;-77
2023/04/11 06:46:41;;;;;;;9.30;5.90;;;;;;;13.44;48.51;100229.64;106073;1253;60450;-77
2023/04/11 06:49:10;;;;;;;11.30;5.50;;;;;;;13.53;48.46;100226.37;106052;1259;66910;-77
2023/04/11 06:51:38;;;;;;;13.90;6.30;;;;;;;13.61;48.37;100222.21;105966;1254;59774;-77
2023/04/11 06:54:07;;;;;;;11.40;6.20;;;;;;;13.71;48.39;100221.11;106038;1258;65675;-76
2023/04/11 06:56:36;;;;;;;13.50;5.90;;;;;;;13.82;48.45;100219.00;106185;1259;60329;-76
2023/04/11 06:59:13;;;;;;;7.10;5.90;;;;;;;13.93;48.53;100215.42;106149;1255;60668;-76
2023/04/11 07:01:44;;;;;;;10.70;6.10;;;;;;;14.03;48.23;100211.97;106167;1260;66406;-76
2023/04/11 07:04:12;;;;;;;9.30;6.90;;;;;;;14.09;47.83;100211.45;105930;1259;60457;-76
2023/04/11 07:06:48;;;;;;;8.30;5.80;;;;;;;14.15;47.94;100212.63;106105;1258;65492;-76
2023/04/11 07:09:18;;;;;;;10.60;6.50;;;;;;;14.22;47.98;100214.58;105939;1258;60472;-76
2023/04/11 07:11:47;;;;;;;8.60;5.70;;;;;;;14.28;47.71;100216.14;105926;1254;60524;-75
2023/04/11 07:14:16;;;;;;;11.70;6.00;;;;;;;14.34;47.72;100216.46;106029;1259;67202;-76
2023/04/11 07:16:46;;;;;;;9.60;5.70;;;;;;;14.41;47.86;100210.07;106040;1259;60606;-74
2023/04/11 07:19:14;;;;;;;11.60;6.00;;;;;;;14.51;47.96;100199.50;106017;1259;65548;-74
2023/04/11 07:21:43;;;;;;;10.10;5.90;;;;;;;14.64;47.80;100195.96;105625;1256;60547;-75
2023/04/11 07:24:37;;;;;;;6.70;5.50;;;;;;;14.77;47.75;100190.70;105751;1260;60437;-73
2023/04/11 07:27:05;;;;;;;7.80;5.10;;;;;;;14.94;47.29;100190.30;105733;1259;66467;-75
2023/04/11 07:29:33;;;;;;;10.40;5.80;;;;;;;15.05;46.88;100190.09;105735;1260;60428;-75
2023/04/11 07:32:04;;;;;;;9.00;5.80;;;;;;;15.14;46.89;100191.09;105665;1259;64528;-73
2023/04/11 07:34:32;;;;;;;7.40;5.30;;;;;;;15.25;46.65;100189.92;105582;1258;60536;-73
2023/04/11 07:37:01;;;;;;;8.30;5.40;;;;;;;15.38;46.60;100189.88;105639;1255;60466;-74
2023/04/11 07:39:30;;;;;;;10.30;6.10;;;;;;;15.48;46.74;100185.88;105696;1255;67305;-74
2023/04/11 07:41:58;;;;;;;6.60;5.30;;;;;;;15.58;46.89;100181.64;105615;1258;61876;-75
2023/04/11 07:44:26;;;;;;;6.80;5.10;;;;;;;15.69;46.78;100176.80;105518;1257;65568;-75
2023/04/11 07:46:55;;;;;;;9.10;5.20;;;;;;;15.78;46.59;100176.73;105667;1260;60427;-76
2023/04/11 07:49:25;;;;;;;7.60;4.80;;;;;;;15.86;46.48;100171.77;105538;1259;60534;-74
2023/04/11 07:51:53;;;;;;;6.80;4.70;;;;;;;15.94;46.51;100166.48;105651;1259;66977;-74
2023/04/11 07:54:24;;;;;;;11.40;4.70;;;;;;;16.06;46.60;100164.35;105486;1258;60418;-74
2023/04/11 07:56:52;;;;;;;6.30;4.20;;;;;;;16.20;46.33;100162.36;105454;1259;66254;-75
2023/04/11 07:59:21;;;;;;;7.50;5.00;;;;;;;16.31;46.00;100157.39;105488;1257;60452;-73
2023/04/11 08:01:57;;;;;;;8.50;4.20;;;;;;;16.41;45.72;100149.00;105488;1259;60415;-72
2023/04/11 08:04:31;;;;;;;10.60;4.70;;;;;;;16.52;45.60;100145.42;106083;1260;66609;-72
2023/04/11 08:07:10;;;;;;;12.30;4.40;;;;;;;16.62;45.43;100139.13;105973;1258;60441;-70
2023/04/11 08:09:41;;;;;;;6.30;4.10;;;;;;;16.70;44.69;100133.44;105404;1259;65280;-71
2023/04/11 08:12:10;;;;;;;5.20;4.10;;;;;;;16.78;45.08;100132.08;105431;1260;60553;-71
2023/04/11 08:14:44;;;;;;;9.10;3.90;;;;;;;16.90;44.60;100131.34;105484;1254;60348;-73
2023/04/11 08:17:13;;;;;;;6.40;4.00;;;;;;;16.96;43.75;100130.98;105499;1258;66521;-72
2023/04/11 08:19:56;;;;;;;6.90;3.80;;;;;;;17.00;43.86;100126.13;105592;1260;60626;-72
2023/04/11 08:22:35;;;;;;;8.50;3.80;;;;;;;17.03;43.49;100121.89;105983;1259;65221;-71
2023/04/11 08:25:07;;;;;;;9.80;3.80;;;;;;;17.04;42.96;100123.81;105729;1258;60565;-72
2023/04/11 08:27:37;;;;;;;17.30;4.10;;;;;;;17.07;42.85;100124.05;105442;1259;60322;-70
2023/04/11 08:30:07;;;;;;;8.20;3.60;;;;;;;17.12;42.49;100118.29;105855;1259;66725;-69
2023/04/11 08:32:37;;;;;;;10.20;3.70;;;;;;;17.17;42.46;100117.81;106278;1258;60481;-72
2023/04/11 08:35:06;;;;;;;10.50;4.00;;;;;;;17.24;42.36;100114.66;105510;1257;64719;-74
2023/04/11 08:37:35;;;;;;;8.30;3.50;;;;;;;17.30;41.78;100111.21;106255;1254;60518;-74
2023/04/11 08:40:05;;;;;;;7.00;3.70;;;;;;;17.33;41.82;100108.52;105936;1255;60483;-74
2023/04/11 08:42:35;;;;;;;9.40;3.50;;;;;;;17.40;42.00;100103.50;105980;1257;66809;-74
2023/04/11 08:45:04;;;;;;;9.70;3.60;;;;;;;17.46;41.96;100100.45;106061;1257;60427;-72
2023/04/11 08:47:34;;;;;;;112.00;8.80;;;;;;;17.57;41.90;100094.79;105846;1254;65258;-72
2023/04/11 08:50:04;;;;;;;225.70;14.80;;;;;;;17.70;41.60;100092.00;105606;1259;60480;-70
2023/04/11 08:52:33;;;;;;;51.60;6.10;;;;;;;17.82;41.45;100087.02;105635;1260;60481;-75
2023/04/11 08:55:02;;;;;;;10.10;3.70;;;;;;;17.94;41.27;100081.38;105316;1254;64996;-73
2023/04/11 08:57:31;;;;;;;8.20;3.50;;;;;;;18.06;41.08;100078.35;105544;1255;60549;-73
2023/04/11 09:00:13;;;;;;;;;;;;;;;18.19;40.82;100073.98;106024;1259;65395;-73
2023/04/11 09:02:55;;;;;;;7.90;3.40;;;;;;;18.28;40.85;100072.68;105906;1259;60388;-75
2023/04/11 09:05:29;;;;;;;5.30;3.20;;;;;;;18.39;40.33;100069.27;105433;1260;60546;-72
2023/04/11 09:08:12;;;;;;;8.30;3.80;;;;;;;18.48;40.45;100064.63;105515;1254;65749;-70
2023/04/11 09:10:44;;;;;;;6.50;3.10;;;;;;;18.56;39.52;100063.48;105550;1257;60355;-72
2023/04/11 09:13:26;;;;;;;5.10;3.40;;;;;;;18.57;38.94;100058.96;105463;1254;65623;-75
2023/04/11 09:16:08;;;;;;;7.40;3.40;;;;;;;18.62;39.45;100059.50;105402;1254;59269;-72
2023/04/11 09:18:43;;;;;;;15.30;3.50;;;;;;;18.73;39.48;100059.25;105390;1263;60434;-74
2023/04/11 09:21:13;;;;;;;7.30;3.60;;;;;;;18.83;38.62;100055.74;105525;1255;68485;-73
2023/04/11 09:23:42;;;;;;;6.10;3.00;;;;;;;18.85;38.80;100051.34;105597;1255;60529;-77
2023/04/11 09:26:11;;;;;;;9.50;3.50;;;;;;;18.94;39.03;100047.27;105606;1254;65259;-73
2023/04/11 09:28:52;;;;;;;7.30;3.40;;;;;;;19.03;38.85;100040.80;105638;1255;60546;-74
2023/04/11 09:31:21;;;;;;;5.20;3.20;;;;;;;19.06;38.14;100034.77;105550;1260;60468;-71
2023/04/11 09:33:54;;;;;;;5.70;3.10;;;;;;;19.02;37.98;100027.77;105645;1257;66575;-73
2023/04/11 09:36:25;;;;;;;6.30;3.20;;;;;;;18.98;37.78;100020.52;105470;1254;60437;-72
2023/04/11 09:38:55;;;;;;;4.60;2.70;;;;;;;18.96;37.76;100015.87;105610;1257;65284;-72
2023/04/11 09:41:34;;;;;;;5.20;2.90;;;;;;;18.86;37.81;100016.41;105682;1254;60496;-75
2023/04/11 09:44:03;;;;;;;5.50;2.80;;;;;;;18.76;37.88;100014.52;105549;1254;60390;-72
2023/04/11 09:46:31;;;;;;;6.00;2.80;;;;;;;18.70;38.11;100007.91;105719;1259;66779;-72
2023/04/11 09:49:00;;;;;;;4.00;2.70;;;;;;;18.75;38.73;100003.55;105527;1254;60632;-73
2023/04/11 09:51:30;;;;;;;4.80;3.00;;;;;;;18.92;38.73;99998.27;105495;1257;65716;-75
2023/04/11 09:54:03;;;;;;;5.10;3.00;;;;;;;19.15;37.87;99989.23;105511;1260;60417;-76
2023/04/11 09:56:33;;;;;;;7.80;3.00;;;;;;;19.37;37.41;99984.97;105568;1260;60342;-75
2023/04/11 09:59:04;;;;;;;7.10;3.00;;;;;;;19.63;37.74;99981.54;105466;1253;66278;-77
2023/04/11 10:01:33;;;;;;;6.90;3.20;;;;;;;19.90;37.47;99978.55;105381;1260;60430;-78
2023/04/11 10:04:03;;;;;;;6.00;3.00;;;;;;;20.11;36.96;99973.02;105738;1254;65559;-76
2023/04/11 10:06:39;;;;;;;5.60;3.20;;;;;;;20.37;36.96;99968.90;105619;1258;60480;-75
2023/04/11 10:09:09;;;;;;;7.70;2.90;;;;;;;20.64;36.18;99962.91;105408;1254;60548;-75
2023/04/11 10:11:43;;;;;;;6.40;3.20;;;;;;;20.89;35.69;99957.27;107142;1258;66703;-76
2023/04/11 10:14:38;;;;;;;6.00;2.90;;;;;;;21.11;34.84;99948.66;105663;1257;60428;-75
2023/04/11 10:17:15;;;;;;;7.40;3.10;;;;;;;21.33;34.72;99939.25;105711;1255;65267;-75
2023/04/11 10:19:56;;;;;;;6.30;3.20;;;;;;;21.55;34.24;99934.90;105573;1254;60457;-77
2023/04/11 10:22:49;;;;;;;5.50;2.70;;;;;;;21.68;33.61;99928.47;105691;1259;60629;-75
2023/04/11 10:25:20;;;;;;;4.80;2.50;;;;;;;21.83;33.72;99923.09;105740;1254;66905;-80
2023/04/11 10:28:03;;;;;;;8.60;2.50;;;;;;;21.97;32.39;99919.97;105731;1260;60607;-73
2023/04/11 10:30:59;;;;;;;3.00;1.80;;;;;;;21.94;31.32;99914.02;105641;1258;65636;-73
2023/04/11 10:41:15;;;;;;;5.00;2.00;;;;;;;21.64;31.34;99907.67;102743;1303;600974;-74
2023/04/11 10:43:45;;;;;;;3.30;2.10;;;;;;;21.65;31.36;99903.61;105110;1278;59272;-72
2023/04/11 10:46:23;;;;;;;5.50;2.20;;;;;;;21.61;30.98;99897.70;105172;1270;59359;-72
2023/04/11 10:48:55;;;;;;;7.40;2.10;;;;;;;21.49;31.18;99900.32;104833;1265;64534;-72
2023/04/11 10:51:25;;;;;;;5.00;2.20;;;;;;;21.40;31.60;99896.26;104967;1269;59859;-73
2023/04/11 10:53:57;;;;;;;4.50;2.10;;;;;;;21.32;31.59;99894.17;104775;1267;143280;-74
2023/04/11 10:56:56;;;;;;;8.60;2.40;;;;;;;21.24;31.81;99894.00;105859;1257;59106;-73
2023/04/11 10:59:30;;;;;;;5.10;2.30;;;;;;;21.23;31.78;99890.23;105838;1251;59381;-74
2023/04/11 11:02:00;;;;;;;6.00;2.30;;;;;;;21.16;31.35;99887.86;106009;1254;65132;-73
2023/04/11 11:04:33;;;;;;;5.40;2.20;;;;;;;21.11;31.87;99888.05;105835;1257;59253;-73
2023/04/11 11:07:03;;;;;;;4.20;2.40;;;;;;;21.18;31.69;99888.65;105614;1259;65525;-73
2023/04/11 11:09:32;;;;;;;4.00;2.40;;;;;;;21.23;31.34;99882.39;105834;1257;59666;-72
2023/04/11 11:12:14;;;;;;;4.00;2.20;;;;;;;21.31;31.27;99873.55;105767;1257;59557;-72
2023/04/11 11:14:45;;;;;;;6.30;2.40;;;;;;;21.52;31.51;99867.88;105781;1257;66036;-73
2023/04/11 11:17:14;;;;;;;6.20;2.20;;;;;;;21.86;31.25;99863.29;105920;1257;59707;-73
2023/04/11 11:19:44;;;;;;;4.40;2.40;;;;;;;22.16;31.04;99868.71;105959;1256;65513;-74
2023/04/11 11:22:16;;;;;;;6.90;2.60;;;;;;;22.40;30.97;99866.39;105954;1251;59542;-74
2023/04/11 11:24:44;;;;;;;7.10;2.40;;;;;;;22.55;30.36;99863.66;105885;1251;59719;-75
2023/04/11 11:27:19;;;;;;;4.60;2.40;;;;;;;22.63;30.29;99858.50;105827;1254;65971;-75
2023/04/11 11:29:47;;;;;;;7.10;2.30;;;;;;;22.70;30.30;99855.25;105691;1260;59733;-73
2023/04/11 11:32:23;;;;;;;5.50;2.60;;;;;;;22.78;30.44;99855.95;105911;1251;65613;-73
2023/04/11 11:34:52;;;;;;;2.60;2.20;;;;;;;22.89;30.25;99853.52;105899;1255;59726;-72
2023/04/11 11:37:21;;;;;;;6.10;2.50;;;;;;;22.93;29.98;99850.61;105891;1257;59631;-72
2023/04/11 11:39:50;;;;;;;5.50;2.30;;;;;;;22.87;29.54;99841.77;105981;1257;65837;-73
2023/04/11 11:42:18;;;;;;;5.00;2.40;;;;;;;22.77;29.67;99839.80;105981;1256;60268;-73
2023/04/11 11:44:46;;;;;;;5.30;2.30;;;;;;;22.70;29.56;99834.09;105772;1256;64415;-73
2023/04/11 11:47:14;;;;;;;5.80;2.20;;;;;;;22.58;29.22;99827.30;105893;1256;59545;-72
2023/04/11 11:49:47;;;;;;;3.50;2.00;;;;;;;22.41;29.65;99830.46;105850;1252;59606;-73